Manchester Village, Vermont
Current Conditions -  °F | °C
As of 6:54 PM on Sunday 23 Nov 2014 (Local Time) from KDDH Reporting Station
Scattered Clouds Scattered Clouds  
Wind Chill: 51°   Ceiling: Unl
Heat Index: 51°   Visibility: 10mi
Dew Point: 36°   Wind: 3mph
Humidity: 56%   Direction: NA
Pressure: 30.06"   Gusts: NA
Location:  43.1635°N, 73.0724°W
Report Text: KDDH 232354Z AUTO VRB03KT 10SM SCT060 11/02 A3006 RMK AO2 SLP182 T01060022 10133 20089 58002
Loading
Personal Weather Stations






























Interactive Weather Map New forecast layout! Learn more

10-Day Weather Forecast

Advertisements
Track Severe Weather on mobile